Time;durP1;ratioP1;P1;durP2;ratioP2;P2;SDS_P1;SDS_P2;PMS_P1;PMS_P2;Temp;Humidity;BMP_temperature;BMP_pressure;BME280_temperature;BME280_humidity;BME280_pressure;Samples;Min_cycle;Max_cycle;Signal;HPM_P1;HPM_P2
2022/12/22 03:25:53;;;;;;;4.95;2.92;;;;;;;;;;5026094;28;19955;-80
2022/12/22 03:28:24;;;;;;;6.45;2.65;;;;;;;;;;5017245;28;20665;-80
2022/12/22 03:30:55;;;;;;;9.00;2.90;;;;;;;;;;5023517;28;20115;-80
2022/12/22 03:33:21;;;;;;;6.80;3.15;;;;;;;;;;5025937;28;20029;-81
2022/12/22 03:35:46;;;;;;;5.07;2.65;;;;;;;;;;5024884;28;20068;-81
2022/12/22 03:38:12;;;;;;;5.25;2.78;;;;;;;;;;5014971;28;20084;-80
2022/12/22 03:40:37;;;;;;;5.47;2.70;;;;;;;;;;4990301;28;20059;-80
2022/12/22 03:48:30;;;;;;;;;;;;;;;;;;5008081;28;20068;-80
2022/12/22 03:50:55;;;;;;;7.00;3.05;;;;;;;;;;5014502;28;19972;-80
2022/12/22 03:53:21;;;;;;;7.05;3.00;;;;;;;;;;5022977;28;20112;-80
2022/12/22 03:55:46;;;;;;;5.40;2.90;;;;;;;;;;5024929;28;20075;-80
2022/12/22 03:58:11;;;;;;;6.55;2.55;;;;;;;;;;5018762;28;20029;-80
2022/12/22 04:00:36;;;;;;;8.15;3.38;;;;;;;;;;5005463;28;20030;-80
2022/12/22 04:03:02;;;;;;;8.55;3.38;;;;;;;;;;5001245;28;20128;-81
2022/12/22 04:05:27;;;;;;;6.32;3.42;;;;;;;;;;5002026;28;20515;-80
2022/12/22 04:07:52;;;;;;;8.57;3.40;;;;;;;;;;5026371;28;20033;-80
2022/12/22 04:13:02;;;;;;;10.13;4.20;;;;;;;;;;5029409;28;20040;-80
2022/12/22 04:15:29;;;;;;;10.85;4.97;;;;;;;;;;5017101;28;20041;-80
2022/12/22 04:17:56;;;;;;;9.20;4.03;;;;;;;;;;5026137;28;20076;-80
2022/12/22 04:20:25;;;;;;;10.52;4.57;;;;;;;;;;5043521;28;20461;-80
2022/12/22 04:22:51;;;;;;;12.18;4.78;;;;;;;;;;5029009;28;20037;-80
2022/12/22 04:25:16;;;;;;;12.80;4.80;;;;;;;;;;5028114;28;20031;-80
2022/12/22 04:27:41;;;;;;;11.52;4.90;;;;;;;;;;5023310;28;20033;-80
2022/12/22 04:30:07;;;;;;;17.98;5.10;;;;;;;;;;5014653;28;20069;-79
2022/12/22 04:32:33;;;;;;;12.07;4.80;;;;;;;;;;5043106;28;20041;-80
2022/12/22 04:34:58;;;;;;;10.68;3.95;;;;;;;;;;5043957;28;20112;-79
2022/12/22 04:37:24;;;;;;;9.95;4.05;;;;;;;;;;5017571;28;20133;-79
2022/12/22 04:39:49;;;;;;;8.30;3.08;;;;;;;;;;5025197;28;20089;-79
2022/12/22 04:42:14;;;;;;;7.78;3.47;;;;;;;;;;5008304;28;20088;-80
2022/12/22 04:44:40;;;;;;;7.75;3.85;;;;;;;;;;5008553;28;20057;-80
2022/12/22 04:47:05;;;;;;;8.23;3.60;;;;;;;;;;5009096;28;20252;-80
2022/12/22 04:49:30;;;;;;;11.15;3.95;;;;;;;;;;5022523;28;20642;-80
2022/12/22 04:51:56;;;;;;;8.82;3.53;;;;;;;;;;5044252;28;20052;-80
2022/12/22 04:54:21;;;;;;;8.52;3.35;;;;;;;;;;5021951;28;20557;-80
2022/12/22 04:56:46;;;;;;;8.50;4.15;;;;;;;;;;5020405;28;20136;-80
2022/12/22 04:59:12;;;;;;;6.60;3.85;;;;;;;;;;5007128;28;20470;-80
2022/12/22 05:01:37;;;;;;;9.65;3.80;;;;;;;;;;5007694;28;20060;-80
2022/12/22 05:04:03;;;;;;;10.80;4.07;;;;;;;;;;5008513;28;20400;-80
2022/12/22 05:06:28;;;;;;;12.48;4.10;;;;;;;;;;5007994;28;20488;-80
2022/12/22 05:08:53;;;;;;;8.88;3.42;;;;;;;;;;5008297;28;20030;-80
2022/12/22 05:11:19;;;;;;;9.18;3.42;;;;;;;;;;5021606;28;20026;-81
2022/12/22 05:13:44;;;;;;;8.40;3.40;;;;;;;;;;5006248;28;20038;-79
2022/12/22 05:16:12;;;;;;;8.77;4.20;;;;;;;;;;5014491;28;20022;-80
2022/12/22 05:18:39;;;;;;;8.98;3.90;;;;;;;;;;5005912;28;20060;-80
2022/12/22 05:21:09;;;;;;;7.53;3.10;;;;;;;;;;5006278;28;20034;-80
2022/12/22 05:23:35;;;;;;;8.75;3.60;;;;;;;;;;5008086;28;20045;-80
2022/12/22 05:26:00;;;;;;;10.95;3.67;;;;;;;;;;5007645;28;20176;-80
2022/12/22 05:28:26;;;;;;;8.20;3.20;;;;;;;;;;5006552;28;20022;-80
2022/12/22 05:30:52;;;;;;;7.43;3.45;;;;;;;;;;5007485;28;20419;-80
2022/12/22 05:33:17;;;;;;;8.48;3.78;;;;;;;;;;5031777;28;20061;-80
2022/12/22 05:35:43;;;;;;;9.25;3.72;;;;;;;;;;5023103;28;20057;-79
2022/12/22 05:38:08;;;;;;;12.98;4.75;;;;;;;;;;5026971;28;20434;-80
2022/12/22 05:40:33;;;;;;;11.27;4.30;;;;;;;;;;5027569;28;20033;-79
2022/12/22 05:42:59;;;;;;;16.30;5.65;;;;;;;;;;5027462;28;20234;-80
2022/12/22 05:45:24;;;;;;;12.15;4.70;;;;;;;;;;5027584;28;20422;-80
2022/12/22 05:47:51;;;;;;;20.90;6.05;;;;;;;;;;5027269;28;20461;-80
2022/12/22 05:50:19;;;;;;;20.73;6.85;;;;;;;;;;5014868;28;20117;-80
2022/12/22 05:52:45;;;;;;;17.80;5.40;;;;;;;;;;5024272;28;20025;-79
2022/12/22 05:55:11;;;;;;;21.30;6.78;;;;;;;;;;5025307;28;20022;-80
2022/12/22 05:57:37;;;;;;;18.73;6.13;;;;;;;;;;5026532;28;20515;-80
2022/12/22 06:00:05;;;;;;;17.27;6.25;;;;;;;;;;5027530;28;20088;-80
2022/12/22 06:02:30;;;;;;;21.23;7.25;;;;;;;;;;5023523;28;20054;-81
2022/12/22 06:04:56;;;;;;;21.52;6.78;;;;;;;;;;5017741;28;20814;-81
2022/12/22 06:07:21;;;;;;;17.02;6.10;;;;;;;;;;5001210;28;20730;-80
2022/12/22 06:09:46;;;;;;;21.67;7.00;;;;;;;;;;5006476;28;20088;-80
2022/12/22 06:12:13;;;;;;;28.52;8.30;;;;;;;;;;5015688;28;20029;-78
2022/12/22 06:14:38;;;;;;;22.92;6.93;;;;;;;;;;5013836;28;20148;-80
2022/12/22 06:17:03;;;;;;;23.52;7.72;;;;;;;;;;5007482;28;20109;-80
2022/12/22 06:19:29;;;;;;;21.38;8.32;;;;;;;;;;5006715;28;20018;-80
2022/12/22 06:21:54;;;;;;;28.27;8.90;;;;;;;;;;5006262;28;20032;-80
2022/12/22 06:24:19;;;;;;;27.23;7.95;;;;;;;;;;5006625;28;20104;-80
2022/12/22 06:26:45;;;;;;;27.88;8.90;;;;;;;;;;5006759;28;20050;-80
2022/12/22 06:29:10;;;;;;;31.60;8.88;;;;;;;;;;5006966;28;20033;-80
2022/12/22 06:31:35;;;;;;;28.52;8.60;;;;;;;;;;5006758;28;20037;-80
2022/12/22 06:34:01;;;;;;;26.00;8.10;;;;;;;;;;5020587;28;20013;-79
2022/12/22 06:36:26;;;;;;;33.80;8.65;;;;;;;;;;5007658;28;20033;-79
2022/12/22 06:38:51;;;;;;;34.30;10.38;;;;;;;;;;5002535;28;20038;-80
2022/12/22 06:43:07;;;;;;;32.75;9.13;;;;;;;;;;5011565;28;20037;-79
2022/12/22 06:44:02;;;;;;;34.80;10.23;;;;;;;;;;5020116;28;20037;-79
2022/12/22 06:46:27;;;;;;;38.42;10.40;;;;;;;;;;5013493;28;20454;-79
2022/12/22 06:48:53;;;;;;;37.00;11.05;;;;;;;;;;5016562;28;20032;-80
2022/12/22 06:51:18;;;;;;;34.17;11.25;;;;;;;;;;5026132;28;20030;-79
2022/12/22 06:53:43;;;;;;;25.60;8.65;;;;;;;;;;5026227;28;20058;-79
2022/12/22 06:56:08;;;;;;;28.08;8.00;;;;;;;;;;5020610;28;20577;-79
2022/12/22 06:58:34;;;;;;;27.92;9.70;;;;;;;;;;5025979;28;20071;-79
2022/12/22 07:00:59;;;;;;;21.42;6.97;;;;;;;;;;5026237;28;20048;-80
2022/12/22 07:03:24;;;;;;;39.80;11.00;;;;;;;;;;5025990;28;20133;-79
2022/12/22 07:05:50;;;;;;;36.33;10.75;;;;;;;;;;5021653;28;20046;-80
2022/12/22 07:08:15;;;;;;;39.75;11.75;;;;;;;;;;5014013;28;20034;-80
2022/12/22 07:10:58;;;;;;;32.42;9.52;;;;;;;;;;5024075;28;20407;-79
2022/12/22 07:13:30;;;;;;;35.08;9.73;;;;;;;;;;5023978;28;20029;-79
2022/12/22 07:15:56;;;;;;;38.25;10.48;;;;;;;;;;5026759;28;20072;-79
2022/12/22 07:18:21;;;;;;;27.50;8.77;;;;;;;;;;5019297;28;20454;-80
2022/12/22 07:20:47;;;;;;;27.70;8.55;;;;;;;;;;5006158;28;20044;-79
2022/12/22 07:23:12;;;;;;;25.20;8.07;;;;;;;;;;5006857;28;20026;-79
2022/12/22 07:25:37;;;;;;;38.00;9.63;;;;;;;;;;5014612;28;20021;-79
2022/12/22 07:28:05;;;;;;;31.98;9.48;;;;;;;;;;5021107;28;20549;-80
2022/12/22 07:30:30;;;;;;;33.42;9.70;;;;;;;;;;5020497;28;20041;-79
2022/12/22 07:32:56;;;;;;;33.50;9.57;;;;;;;;;;5009399;28;20026;-78
2022/12/22 07:35:21;;;;;;;31.52;9.55;;;;;;;;;;5012306;28;20422;-78
2022/12/22 07:37:47;;;;;;;35.72;10.77;;;;;;;;;;5034817;28;20406;-79
2022/12/22 07:40:13;;;;;;;27.25;9.68;;;;;;;;;;5006717;28;20076;-79
2022/12/22 07:42:44;;;;;;;28.63;8.70;;;;;;;;;;5009637;28;20547;-80
2022/12/22 07:45:11;;;;;;;31.90;9.88;;;;;;;;;;5017332;28;20030;-79
2022/12/22 07:47:36;;;;;;;27.08;8.20;;;;;;;;;;5018245;28;20044;-79
2022/12/22 07:52:46;;;;;;;28.83;8.65;;;;;;;;;;5017848;28;20044;-79
2022/12/22 07:55:12;;;;;;;34.92;9.90;;;;;;;;;;5015450;28;20017;-79
2022/12/22 07:57:38;;;;;;;31.63;10.20;;;;;;;;;;5004946;28;20037;-80
2022/12/22 08:00:04;;;;;;;37.42;10.75;;;;;;;;;;5018988;28;20493;-79
2022/12/22 08:02:29;;;;;;;38.28;10.88;;;;;;;;;;5011774;28;20744;-80
2022/12/22 08:04:54;;;;;;;37.78;10.57;;;;;;;;;;5024956;28;20042;-79
2022/12/22 08:07:20;;;;;;;31.23;9.18;;;;;;;;;;5021206;28;20060;-77
2022/12/22 08:09:45;;;;;;;55.50;11.25;;;;;;;;;;5014743;28;20042;-79
2022/12/22 08:12:10;;;;;;;39.20;11.68;;;;;;;;;;5009932;28;20037;-80
2022/12/22 08:14:36;;;;;;;29.80;9.63;;;;;;;;;;5005413;28;20101;-80
2022/12/22 08:17:01;;;;;;;37.92;10.35;;;;;;;;;;4993699;28;20045;-81
2022/12/22 08:19:26;;;;;;;40.60;11.75;;;;;;;;;;5009376;28;20069;-79
2022/12/22 08:21:52;;;;;;;42.05;12.70;;;;;;;;;;5015312;28;20060;-78
2022/12/22 08:24:17;;;;;;;38.35;11.65;;;;;;;;;;5013966;28;20091;-78
2022/12/22 08:26:45;;;;;;;30.98;9.70;;;;;;;;;;5016173;28;20088;-79
2022/12/22 08:29:33;;;;;;;31.45;10.40;;;;;;;;;;5019683;28;20522;-79
2022/12/22 08:31:59;;;;;;;32.20;11.02;;;;;;;;;;5010925;28;20514;-81
2022/12/22 08:34:25;;;;;;;32.20;10.55;;;;;;;;;;5011732;28;20049;-80
2022/12/22 08:36:54;;;;;;;33.08;12.13;;;;;;;;;;5016137;28;20022;-81
2022/12/22 08:39:21;;;;;;;33.45;11.68;;;;;;;;;;5009326;28;20555;-78
2022/12/22 08:41:50;;;;;;;34.45;12.88;;;;;;;;;;5008279;28;20038;-78
2022/12/22 08:44:22;;;;;;;28.40;11.60;;;;;;;;;;5013988;28;20045;-79
2022/12/22 08:46:48;;;;;;;27.17;10.70;;;;;;;;;;5011713;28;20056;-77
2022/12/22 08:49:13;;;;;;;30.00;11.63;;;;;;;;;;5011231;28;20067;-80
2022/12/22 08:51:39;;;;;;;26.75;10.90;;;;;;;;;;5030691;28;20037;-80
2022/12/22 08:54:04;;;;;;;29.27;11.52;;;;;;;;;;5031815;28;20037;-80
2022/12/22 08:56:30;;;;;;;26.92;8.57;;;;;;;;;;5016881;28;20025;-80
2022/12/22 08:58:55;;;;;;;17.77;7.38;;;;;;;;;;5018433;28;20113;-80
2022/12/22 09:01:22;;;;;;;21.60;8.50;;;;;;;;;;5012293;28;20018;-78
2022/12/22 09:03:51;;;;;;;21.25;9.23;;;;;;;;;;5017128;28;20057;-80
2022/12/22 09:06:18;;;;;;;20.35;8.88;;;;;;;;;;5020062;28;20040;-83
2022/12/22 09:08:44;;;;;;;20.20;8.50;;;;;;;;;;5031907;28;20046;-81
2022/12/22 09:11:09;;;;;;;23.50;8.38;;;;;;;;;;5017256;28;20037;-80
2022/12/22 09:13:34;;;;;;;18.88;7.63;;;;;;;;;;5016481;28;20040;-76
2022/12/22 09:16:06;;;;;;;21.17;8.18;;;;;;;;;;5016682;28;20048;-79
2022/12/22 09:18:31;;;;;;;17.55;6.40;;;;;;;;;;5017617;28;20026;-79
2022/12/22 09:20:56;;;;;;;18.23;7.53;;;;;;;;;;5030729;28;20033;-77
2022/12/22 09:23:22;;;;;;;18.50;6.75;;;;;;;;;;5018848;28;20481;-78
2022/12/22 09:25:47;;;;;;;16.85;6.85;;;;;;;;;;5017208;28;20032;-78
2022/12/22 09:28:12;;;;;;;16.25;6.78;;;;;;;;;;5016796;28;20021;-79
2022/12/22 09:30:38;;;;;;;17.15;6.78;;;;;;;;;;5018232;28;20112;-80
2022/12/22 09:33:03;;;;;;;16.10;5.63;;;;;;;;;;5016098;28;20030;-79
2022/12/22 09:35:28;;;;;;;13.05;5.68;;;;;;;;;;5017082;28;20043;-80
2022/12/22 09:37:54;;;;;;;12.02;5.32;;;;;;;;;;5017326;28;21164;-79
2022/12/22 09:40:21;;;;;;;15.80;6.15;;;;;;;;;;5019239;28;20052;-82
2022/12/22 09:42:46;;;;;;;13.98;5.32;;;;;;;;;;5013593;28;20434;-78
2022/12/22 09:45:19;;;;;;;15.25;6.75;;;;;;;;;;5018914;28;20507;-77
2022/12/22 09:47:52;;;;;;;9.02;4.45;;;;;;;;;;5018730;28;20038;-79
2022/12/22 09:50:22;;;;;;;11.80;5.45;;;;;;;;;;5021978;28;20675;-80
2022/12/22 09:52:51;;;;;;;9.75;5.20;;;;;;;;;;5018399;28;20025;-78
2022/12/22 09:55:22;;;;;;;9.23;4.55;;;;;;;;;;5016320;28;20049;-78
2022/12/22 09:57:48;;;;;;;8.32;4.15;;;;;;;;;;5016996;28;20558;-79
2022/12/22 10:00:16;;;;;;;10.82;4.25;;;;;;;;;;5013529;28;20045;-79
2022/12/22 10:03:00;;;;;;;8.48;3.90;;;;;;;;;;5007318;28;20045;-78
2022/12/22 10:05:51;;;;;;;7.85;3.83;;;;;;;;;;5031692;28;20468;-81
2022/12/22 10:08:28;;;;;;;7.75;3.08;;;;;;;;;;5017085;28;20048;-79
2022/12/22 10:10:55;;;;;;;8.88;3.92;;;;;;;;;;5016261;28;20034;-79
2022/12/22 10:13:20;;;;;;;7.13;3.25;;;;;;;;;;5014924;28;20543;-77
2022/12/22 10:15:46;;;;;;;6.18;2.95;;;;;;;;;;5014193;28;20053;-77
2022/12/22 10:18:14;;;;;;;10.05;3.58;;;;;;;;;;5018555;28;20125;-77
2022/12/22 10:20:43;;;;;;;6.78;3.47;;;;;;;;;;5015042;28;20033;-80
2022/12/22 10:23:16;;;;;;;7.03;3.13;;;;;;;;;;5030856;28;20032;-78
2022/12/22 10:26:01;;;;;;;5.23;3.00;;;;;;;;;;5017850;28;20113;-78
2022/12/22 10:28:48;;;;;;;5.60;2.83;;;;;;;;;;5017555;28;20268;-79
2022/12/22 10:31:20;;;;;;;7.22;2.90;;;;;;;;;;5017621;28;20072;-77
2022/12/22 10:33:47;;;;;;;8.00;3.67;;;;;;;;;;5017661;28;20034;-77
2022/12/22 10:36:25;;;;;;;9.02;3.80;;;;;;;;;;5019477;28;20028;-81
2022/12/22 10:38:52;;;;;;;6.90;3.80;;;;;;;;;;5032720;28;20056;-83
2022/12/22 10:41:20;;;;;;;8.13;3.95;;;;;;;;;;5014248;28;20038;-82
2022/12/22 10:43:52;;;;;;;9.07;4.18;;;;;;;;;;5016467;28;20473;-80
2022/12/22 10:46:27;;;;;;;8.60;4.27;;;;;;;;;;5030641;28;20503;-80
2022/12/22 10:48:53;;;;;;;7.38;3.55;;;;;;;;;;5020081;28;20034;-81
2022/12/22 10:51:23;;;;;;;9.27;3.45;;;;;;;;;;5031662;28;20525;-80
2022/12/22 10:53:52;;;;;;;10.52;4.30;;;;;;;;;;5012852;28;20529;-81
2022/12/22 10:56:27;;;;;;;6.68;3.38;;;;;;;;;;5000999;28;20045;-80
2022/12/22 10:58:55;;;;;;;8.30;3.30;;;;;;;;;;5017320;28;20061;-81
2022/12/22 11:01:28;;;;;;;8.65;3.53;;;;;;;;;;5017842;28;20049;-82
2022/12/22 11:03:53;;;;;;;6.90;3.20;;;;;;;;;;5012436;28;20030;-80
2022/12/22 11:06:19;;;;;;;7.20;3.40;;;;;;;;;;5011649;28;20351;-78
2022/12/22 11:08:45;;;;;;;2.72;1.77;;;;;;;;;;5014543;28;20470;-77
2022/12/22 11:11:44;;;;;;;8.68;3.20;;;;;;;;;;5034227;28;20025;-79
2022/12/22 11:14:34;;;;;;;6.00;2.53;;;;;;;;;;5011432;28;20613;-80
2022/12/22 11:17:16;;;;;;;7.72;3.42;;;;;;;;;;5031917;28;20045;-83
2022/12/22 11:20:00;;;;;;;13.48;3.85;;;;;;;;;;5013201;28;20120;-77
2022/12/22 11:22:36;;;;;;;6.32;3.67;;;;;;;;;;5012936;28;20105;-79
2022/12/22 11:25:28;;;;;;;10.15;3.70;;;;;;;;;;5016389;28;20053;-80
2022/12/22 11:28:12;;;;;;;9.10;3.78;;;;;;;;;;5014361;28;20638;-81
2022/12/22 11:31:05;;;;;;;6.65;3.53;;;;;;;;;;5018343;28;20064;-79
2022/12/22 11:33:50;;;;;;;6.23;3.43;;;;;;;;;;5012161;28;20788;-80
2022/12/22 11:36:25;;;;;;;6.38;2.40;;;;;;;;;;5019474;28;20271;-80
2022/12/22 11:38:57;;;;;;;5.10;2.35;;;;;;;;;;5017897;28;20434;-80
2022/12/22 11:41:41;;;;;;;3.90;2.13;;;;;;;;;;5016020;28;20060;-80
2022/12/22 11:44:58;;;;;;;5.47;2.97;;;;;;;;;;5022719;28;20053;-80
2022/12/22 11:47:44;;;;;;;6.68;3.47;;;;;;;;;;4989965;28;20038;-80
2022/12/22 11:50:28;;;;;;;3.28;2.03;;;;;;;;;;5037409;28;20057;-80
2022/12/22 11:53:05;;;;;;;;;;;;;;;;;;5035869;28;20029;-80
2022/12/22 11:55:42;;;;;;;3.75;2.42;;;;;;;;;;5012387;28;19916;-80
2022/12/22 11:58:29;;;;;;;6.30;2.85;;;;;;;;;;5028989;28;20045;-80
2022/12/22 12:01:17;;;;;;;3.33;1.92;;;;;;;;;;5019427;28;20419;-80
2022/12/22 12:04:04;;;;;;;3.75;2.35;;;;;;;;;;5029345;28;20029;-80
2022/12/22 12:06:50;;;;;;;4.18;2.20;;;;;;;;;;5015128;28;20049;-80
2022/12/22 12:09:35;;;;;;;3.72;2.28;;;;;;;;;;5009553;28;20124;-80
2022/12/22 12:12:20;;;;;;;7.70;2.90;;;;;;;;;;5015641;28;20049;-80
2022/12/22 12:15:07;;;;;;;6.05;2.70;;;;;;;;;;5037986;28;20038;-79
2022/12/22 12:17:54;;;;;;;5.97;2.70;;;;;;;;;;5020879;28;20033;-80
2022/12/22 12:20:48;;;;;;;6.30;2.35;;;;;;;;;;5019084;28;20458;-79
2022/12/22 12:23:25;;;;;;;4.30;2.60;;;;;;;;;;5017686;28;20049;-80
2022/12/22 12:26:14;;;;;;;5.88;2.72;;;;;;;;;;5014530;28;20034;-79
2022/12/22 12:29:17;;;;;;;5.93;2.80;;;;;;;;;;5018295;28;20049;-80
2022/12/22 12:31:52;;;;;;;5.22;2.97;;;;;;;;;;5018705;28;20053;-79
2022/12/22 12:34:18;;;;;;;5.20;3.00;;;;;;;;;;5024998;28;20029;-79
2022/12/22 12:37:01;;;;;;;6.70;3.10;;;;;;;;;;5011132;28;20099;-80
2022/12/22 12:40:19;;;;;;;5.55;3.00;;;;;;;;;;5009358;28;20459;-80
2022/12/22 12:42:46;;;;;;;6.15;3.08;;;;;;;;;;4995676;28;20048;-80
2022/12/22 12:45:30;;;;;;;7.63;3.30;;;;;;;;;;5008122;28;20562;-79
2022/12/22 12:48:24;;;;;;;5.22;2.92;;;;;;;;;;5009212;28;20037;-80
2022/12/22 12:50:50;;;;;;;;;;;;;;;;;;5013153;28;20543;-80
2022/12/22 12:53:18;;;;;;;7.22;3.00;;;;;;;;;;5026433;28;19922;-79
2022/12/22 12:55:46;;;;;;;8.13;2.95;;;;;;;;;;5009187;28;20053;-80
2022/12/22 12:58:38;;;;;;;6.05;2.55;;;;;;;;;;5017124;28;20071;-80
2022/12/22 13:01:09;;;;;;;11.88;3.65;;;;;;;;;;5033452;28;20046;-80
2022/12/22 13:03:37;;;;;;;8.55;2.97;;;;;;;;;;5006892;28;20412;-80
2022/12/22 13:06:06;;;;;;;10.80;3.20;;;;;;;;;;5016828;28;20050;-80
2022/12/22 13:08:52;;;;;;;10.15;3.47;;;;;;;;;;4995636;28;20525;-80
2022/12/22 13:11:28;;;;;;;11.70;3.25;;;;;;;;;;4991855;28;20034;-79
2022/12/22 13:13:55;;;;;;;11.85;2.63;;;;;;;;;;4993247;28;20021;-80
2022/12/22 13:16:22;;;;;;;10.95;2.88;;;;;;;;;;4997298;28;20069;-79
2022/12/22 13:18:48;;;;;;;9.23;3.05;;;;;;;;;;4997070;28;20073;-80
2022/12/22 13:21:21;;;;;;;8.45;2.45;;;;;;;;;;4995194;28;20043;-80
2022/12/22 13:24:00;;;;;;;7.10;2.60;;;;;;;;;;4995272;28;20049;-80
2022/12/22 13:26:31;;;;;;;9.05;2.72;;;;;;;;;;4996947;28;20050;-79
2022/12/22 13:28:59;;;;;;;9.43;1.98;;;;;;;;;;4994903;28;20542;-79
2022/12/22 13:31:33;;;;;;;10.57;2.00;;;;;;;;;;5007983;28;20138;-80
2022/12/22 13:34:35;;;;;;;9.95;2.50;;;;;;;;;;5020024;28;20056;-79
2022/12/22 13:37:18;;;;;;;5.28;1.80;;;;;;;;;;5016201;28;20402;-80
2022/12/22 13:40:05;;;;;;;14.20;2.22;;;;;;;;;;5027557;28;20052;-80
2022/12/22 13:42:34;;;;;;;14.00;2.65;;;;;;;;;;5023679;28;20547;-80
2022/12/22 13:45:00;;;;;;;15.70;3.05;;;;;;;;;;5024235;28;20102;-80
2022/12/22 13:47:26;;;;;;;11.20;2.80;;;;;;;;;;5026207;28;20616;-80
2022/12/22 13:49:52;;;;;;;18.75;3.20;;;;;;;;;;5022045;28;20033;-79
2022/12/22 13:52:18;;;;;;;12.57;3.00;;;;;;;;;;5026840;28;20038;-81
2022/12/22 13:54:44;;;;;;;17.02;3.00;;;;;;;;;;5027589;28;20049;-81
2022/12/22 13:57:19;;;;;;;20.15;2.78;;;;;;;;;;5027801;28;20102;-81
2022/12/22 13:59:48;;;;;;;17.67;2.83;;;;;;;;;;5025082;28;20037;-79
2022/12/22 14:02:18;;;;;;;16.13;3.05;;;;;;;;;;5007698;28;20123;-80
2022/12/22 14:05:03;;;;;;;18.55;3.10;;;;;;;;;;5009096;28;20040;-79
2022/12/22 14:07:29;;;;;;;16.02;2.90;;;;;;;;;;5017492;28;20450;-81
2022/12/22 14:09:55;;;;;;;10.80;2.92;;;;;;;;;;5026776;28;20041;-81
2022/12/22 14:12:29;;;;;;;17.38;3.25;;;;;;;;;;5013759;28;20034;-81
2022/12/22 14:14:57;;;;;;;21.40;3.47;;;;;;;;;;5012375;28;20424;-81
2022/12/22 14:17:28;;;;;;;27.02;4.82;;;;;;;;;;5014512;28;20148;-79
2022/12/22 14:20:00;;;;;;;25.80;4.03;;;;;;;;;;5012069;28;20463;-80
2022/12/22 14:22:34;;;;;;;23.98;3.90;;;;;;;;;;5031074;28;20021;-80
2022/12/22 14:25:12;;;;;;;23.63;3.97;;;;;;;;;;5012699;28;20042;-80
2022/12/22 14:27:42;;;;;;;17.17;3.55;;;;;;;;;;5016652;28;20030;-80
2022/12/22 14:30:25;;;;;;;21.65;2.92;;;;;;;;;;5015180;28;20036;-80
2022/12/22 14:32:56;;;;;;;26.05;4.20;;;;;;;;;;5011832;28;20065;-80
2022/12/22 14:35:21;;;;;;;24.73;3.53;;;;;;;;;;5005355;28;20128;-81
2022/12/22 14:37:51;;;;;;;25.30;3.83;;;;;;;;;;5006416;28;20091;-80
2022/12/22 14:40:31;;;;;;;23.38;3.28;;;;;;;;;;5012312;28;20018;-81
2022/12/22 14:42:59;;;;;;;34.25;4.60;;;;;;;;;;5010560;28;20156;-80
2022/12/22 14:45:24;;;;;;;29.75;4.30;;;;;;;;;;5015140;28;20038;-80
2022/12/22 14:47:52;;;;;;;29.70;4.40;;;;;;;;;;5012672;28;20045;-80
2022/12/22 14:50:28;;;;;;;25.35;3.63;;;;;;;;;;5006803;28;20679;-80
2022/12/22 14:52:57;;;;;;;21.70;3.55;;;;;;;;;;4995676;28;20598;-79
2022/12/22 14:55:49;;;;;;;30.63;3.83;;;;;;;;;;5015979;28;20025;-80
2022/12/22 14:58:22;;;;;;;31.13;4.38;;;;;;;;;;5014661;28;20045;-80
2022/12/22 15:01:21;;;;;;;25.48;4.07;;;;;;;;;;5031028;28;20061;-79
2022/12/22 15:04:01;;;;;;;31.13;4.50;;;;;;;;;;5036741;28;20044;-79
2022/12/22 15:06:26;;;;;;;26.77;4.43;;;;;;;;;;5021066;28;20661;-80
2022/12/22 15:09:13;;;;;;;26.15;3.72;;;;;;;;;;5006583;28;20068;-80
2022/12/22 15:11:51;;;;;;;20.33;3.53;;;;;;;;;;5007782;28;20048;-80
2022/12/22 15:14:22;;;;;;;31.25;4.00;;;;;;;;;;5006833;28;20042;-80
2022/12/22 15:16:49;;;;;;;23.02;3.47;;;;;;;;;;5009149;28;20510;-80
2022/12/22 15:19:16;;;;;;;25.02;3.97;;;;;;;;;;5010518;28;20022;-80
2022/12/22 15:21:42;;;;;;;28.17;4.03;;;;;;;;;;5017344;28;20038;-80
2022/12/22 15:24:14;;;;;;;28.27;4.50;;;;;;;;;;5014509;28;20037;-81
2022/12/22 15:26:39;;;;;;;22.40;3.90;;;;;;;;;;5013294;28;20461;-79
2022/12/22 15:29:05;;;;;;;30.00;4.35;;;;;;;;;;5012250;28;20034;-80
2022/12/22 15:31:30;;;;;;;19.05;3.60;;;;;;;;;;5012174;28;20103;-80
2022/12/22 15:33:59;;;;;;;30.95;4.22;;;;;;;;;;5011991;28;20036;-80
2022/12/22 15:36:24;;;;;;;26.23;3.38;;;;;;;;;;5003960;28;20038;-80
2022/12/22 15:38:50;;;;;;;25.60;3.92;;;;;;;;;;5010696;28;20049;-80
2022/12/22 15:41:15;;;;;;;25.50;4.00;;;;;;;;;;4997767;28;20815;-80
2022/12/22 15:43:41;;;;;;;30.40;3.80;;;;;;;;;;5013794;28;20545;-79
2022/12/22 15:46:06;;;;;;;29.20;5.00;;;;;;;;;;5012156;28;20068;-79
2022/12/22 15:48:34;;;;;;;31.40;4.75;;;;;;;;;;5013445;28;20124;-80
2022/12/22 15:51:01;;;;;;;25.85;4.07;;;;;;;;;;5013653;28;20053;-79
2022/12/22 15:53:26;;;;;;;23.45;3.70;;;;;;;;;;5019403;28;20030;-79
2022/12/22 15:55:53;;;;;;;32.28;4.50;;;;;;;;;;5019001;28;20129;-79
2022/12/22 15:58:21;;;;;;;30.13;4.70;;;;;;;;;;5011283;28;20517;-80
2022/12/22 16:00:47;;;;;;;26.00;3.47;;;;;;;;;;5009591;28;20038;-80
2022/12/22 16:03:13;;;;;;;26.80;4.25;;;;;;;;;;4989610;28;20046;-80
2022/12/22 16:05:39;;;;;;;23.10;4.93;;;;;;;;;;5000188;28;20554;-79
2022/12/22 16:08:35;;;;;;;30.45;3.92;;;;;;;;;;5016035;28;20042;-79
2022/12/22 16:11:01;;;;;;;30.88;3.90;;;;;;;;;;5015829;28;20466;-80
2022/12/22 16:13:26;;;;;;;29.58;4.15;;;;;;;;;;5014702;28;20558;-78
2022/12/22 16:15:53;;;;;;;25.48;4.57;;;;;;;;;;5011006;28;20054;-80
2022/12/22 16:18:18;;;;;;;24.42;4.90;;;;;;;;;;5010391;28;20030;-80
2022/12/22 16:20:44;;;;;;;28.15;3.88;;;;;;;;;;5011579;28;20045;-80
2022/12/22 16:23:16;;;;;;;17.42;3.33;;;;;;;;;;5009734;28;20045;-80
2022/12/22 16:25:43;;;;;;;27.50;3.80;;;;;;;;;;5023505;28;20168;-80
2022/12/22 16:28:14;;;;;;;16.27;3.40;;;;;;;;;;5029999;28;20033;-80
2022/12/22 16:30:40;;;;;;;25.05;4.22;;;;;;;;;;5011259;28;20141;-80
2022/12/22 16:33:05;;;;;;;42.30;4.78;;;;;;;;;;5031258;28;20191;-79
2022/12/22 16:35:31;;;;;;;24.20;4.10;;;;;;;;;;5013706;28;20034;-80
2022/12/22 16:37:58;;;;;;;18.63;3.70;;;;;;;;;;5017767;28;20041;-79
2022/12/22 16:40:24;;;;;;;21.80;4.32;;;;;;;;;;5009800;28;20069;-80
2022/12/22 16:42:56;;;;;;;26.20;3.72;;;;;;;;;;5009648;28;20729;-78
2022/12/22 16:45:24;;;;;;;18.60;2.72;;;;;;;;;;5019088;28;20037;-79
2022/12/22 16:47:51;;;;;;;27.83;3.35;;;;;;;;;;5020631;28;20091;-79
2022/12/22 16:50:20;;;;;;;34.00;3.70;;;;;;;;;;5016591;28;20053;-80
2022/12/22 16:52:47;;;;;;;24.05;3.13;;;;;;;;;;5021579;28;20087;-80
2022/12/22 16:55:20;;;;;;;22.48;4.00;;;;;;;;;;5024029;28;20022;-80
2022/12/22 16:57:46;;;;;;;15.90;3.17;;;;;;;;;;5014735;28;20100;-79
2022/12/22 17:00:15;;;;;;;25.30;3.28;;;;;;;;;;5024675;28;20443;-80
2022/12/22 17:02:41;;;;;;;19.85;3.28;;;;;;;;;;5013544;28;20119;-79
2022/12/22 17:05:24;;;;;;;23.45;3.83;;;;;;;;;;5026024;28;20041;-80
2022/12/22 17:07:50;;;;;;;19.13;3.88;;;;;;;;;;5011845;28;20060;-81
2022/12/22 17:10:17;;;;;;;22.30;3.40;;;;;;;;;;5017391;28;20048;-80
2022/12/22 17:12:42;;;;;;;15.07;3.08;;;;;;;;;;5031744;28;20562;-80
2022/12/22 17:15:16;;;;;;;19.17;2.65;;;;;;;;;;5011775;28;20145;-80
2022/12/22 17:17:41;;;;;;;23.58;3.25;;;;;;;;;;5013104;28;20029;-80
2022/12/22 17:20:08;;;;;;;18.15;3.45;;;;;;;;;;5016140;28;20036;-81
2022/12/22 17:22:34;;;;;;;16.83;3.15;;;;;;;;;;5015978;28;20030;-81
2022/12/22 17:25:02;;;;;;;20.20;4.00;;;;;;;;;;5012390;28;20603;-79
2022/12/22 17:27:30;;;;;;;21.65;3.55;;;;;;;;;;5017593;28;20630;-81
2022/12/22 17:29:59;;;;;;;28.85;3.50;;;;;;;;;;5018979;28;20068;-80
2022/12/22 17:32:24;;;;;;;22.30;3.78;;;;;;;;;;5024326;28;20619;-80
2022/12/22 17:34:50;;;;;;;14.77;3.28;;;;;;;;;;5015990;28;20026;-81
2022/12/22 17:37:18;;;;;;;16.27;3.28;;;;;;;;;;5016426;28;20045;-80
2022/12/22 17:39:46;;;;;;;18.15;3.50;;;;;;;;;;5011074;28;20080;-81
2022/12/22 17:42:15;;;;;;;17.77;3.03;;;;;;;;;;5016412;28;20038;-80
2022/12/22 17:44:41;;;;;;;20.45;3.95;;;;;;;;;;5011706;28;20037;-81
2022/12/22 17:47:06;;;;;;;23.70;3.15;;;;;;;;;;5016506;28;20033;-80
2022/12/22 17:49:31;;;;;;;13.77;2.95;;;;;;;;;;5015019;28;20120;-79
2022/12/22 17:51:57;;;;;;;14.07;2.33;;;;;;;;;;5012346;28;20083;-80
2022/12/22 17:54:24;;;;;;;15.80;3.35;;;;;;;;;;5016659;28;20116;-80
2022/12/22 17:56:50;;;;;;;18.38;3.22;;;;;;;;;;5007287;28;20041;-80
2022/12/22 17:59:16;;;;;;;18.40;3.15;;;;;;;;;;5009969;28;20053;-79
2022/12/22 18:01:41;;;;;;;11.07;2.50;;;;;;;;;;5029715;28;20017;-79
2022/12/22 18:04:09;;;;;;;13.82;2.53;;;;;;;;;;5005991;28;20029;-79
2022/12/22 18:06:38;;;;;;;16.30;2.72;;;;;;;;;;5011197;28;20034;-80
2022/12/22 18:09:05;;;;;;;14.20;2.47;;;;;;;;;;5005740;28;20495;-78
2022/12/22 18:11:30;;;;;;;10.60;2.63;;;;;;;;;;5010386;28;20038;-80
2022/12/22 18:13:57;;;;;;;12.77;2.50;;;;;;;;;;5012281;28;20070;-83
2022/12/22 18:16:23;;;;;;;12.52;2.65;;;;;;;;;;5008109;28;20047;-82
2022/12/22 18:18:48;;;;;;;8.98;2.10;;;;;;;;;;5024170;28;20046;-81
2022/12/22 18:21:22;;;;;;;13.32;2.30;;;;;;;;;;5018794;28;20053;-82
2022/12/22 18:23:49;;;;;;;11.60;2.53;;;;;;;;;;5014685;28;20039;-82
2022/12/22 18:26:19;;;;;;;11.93;2.72;;;;;;;;;;5022437;28;20033;-83